Cytokinetics Inc (NASDAQ:CYTK)

CAPS Rating: 3 out of 5

A biopharmaceutical company, focused on developing small molecule therapeutics for the treatment of cardiovascular diseases and cancer.

Results 1 - 99 of 192 : 1 2 Next »
Top
Pick
Member Name Member
Rating
Start
Date
Call Time
Frame
Start
Price
Stock
Gain
Index
Gain
Score Commentary
skyrocket29 53.24 12/26/2014 Outperform 1Y $6.46 -4.95% -0.08% -4.88 0 Comment
dflo 84.65 12/5/2014 Outperform 5Y $4.57 +34.35% +0.27% +34.08 0 Comment
Kami74 < 20 11/28/2014 Outperform 5Y $4.58 +34.06% +0.46% +33.60 0 Comment
cthomas1017 98.57 11/18/2014 Underperform 5Y $4.11 +49.39% +1.96% -47.44 0 Comment
flemishinvestor < 20 11/18/2014 Outperform 3Y $4.21 +45.84% +1.53% +44.31 0 Comment
MacroHedge 93.74 11/7/2014 Outperform 5Y $4.11 +49.39% +2.57% +46.82 0 Comment
hayrettin 70.01 10/13/2014 Outperform 5Y $3.37 +82.20% +9.68% +72.51 0 Comment
ptanabe 78.87 9/9/2014 Outperform 5Y $3.67 +67.19% +4.17% +63.02 1 Comment
GyroDynasty 98.41 7/21/2014 Outperform 5Y $4.25 +44.47% +5.76% +38.71 0 Comment
OKwarrior 48.53 6/6/2014 Outperform 5Y $4.88 +25.82% +6.96% +18.86 1 Comment
ArmyRob 74.05 5/7/2014 Underperform 5Y $4.14 +48.31% +11.16% -37.15 0 Comment
foufou1971 68.78 4/28/2014 Outperform 1Y $4.35 +41.15% +12.16% +28.99 0 Comment
AsianMatter < 20 4/28/2014 Outperform 3W $4.58 +34.06% +11.44% +22.63 0 Comment
portefeuille2 99.70 4/25/2014 Outperform 5Y $4.91 +25.18% +11.71% +13.46 0 Comment
peregrine 99.14 4/25/2014 Outperform 5Y $5.07 +21.10% +12.01% +9.09 0 Comment
DoubleBagel 41.81 4/25/2014 Outperform 5Y $5.22 +17.62% +11.30% +6.33 0 Comment
portefeuille 99.67 4/16/2014 Outperform 5Y $8.95 -31.40% +12.38% -43.78 0 Comment
TerryFool 42.37 4/15/2014 Outperform 5Y $8.94 -31.32% +14.45% -45.77 1 Comment
TerryHoodSr 61.55 4/15/2014 Outperform 5Y $8.94 -31.32% +13.73% -45.05 1 Comment
msb09 < 20 4/2/2014 Outperform 3M $9.79 -37.28% +10.58% -47.86 0 Comment
Haugurafpeningum 28.42 3/31/2014 Outperform 5Y $9.20 -33.26% +11.67% -44.94 0 Comment
IVolStrategy < 20 3/26/2014 Outperform 1Y $9.02 -31.93% +11.45% -43.38 0 Comment
BioForcePicks1 89.80 3/25/2014 Outperform 3M $8.94 -31.32% +11.98% -43.30 0 Comment
Dmaral < 20 2/27/2014 Outperform 5Y $10.31 -40.45% +12.50% -52.95 0 Comment
This player feels very strongly about this pick and has marked it a Top Pick. Top Picks do not affect a player’s score. s2dbaker 82.68 1/10/2014 Outperform 5Y $9.22 -33.41% +13.51% -46.92 1 Comment
flypower 98.86 1/7/2014 Outperform 5Y $7.30 -15.89% +13.85% -29.74 0 Comment
HoosierDoozer < 20 12/23/2013 Outperform 5Y $6.60 -6.97% +14.19% -21.15 0 Comment
grahamfordummies 67.35 8/8/2013 12/4/2013 Outperform 3Y $10.21 -39.86% +22.63% -62.49 1 Comment
cavemantrader 47.55 11/7/2013 Outperform 5Y $6.33 -3.00% +19.12% -22.12 0 Comment
mandynshane < 20 10/8/2013 Outperform NS $6.69 -8.22% +24.99% -33.21 0 Comment
ImFive 39.40 10/7/2013 Outperform 5Y $7.03 -12.66% +24.50% -37.16 0 Comment
ralonsot < 20 10/2/2013 Outperform 5Y $7.38 -16.80% +23.47% -40.27 0 Comment
withoutDoubt 21.53 9/5/2013 Outperform 5Y $8.32 -26.25% +25.48% -51.72 0 Comment
fatmoneyrz 99.04 9/3/2013 Outperform 5Y $7.79 -21.18% +26.11% -47.29 0 Comment
KidJones 97.62 9/3/2013 Outperform 5Y $8.62 -28.77% +26.15% -54.92 0 Comment
Greeniesnack 46.55 8/23/2013 Outperform 5Y $11.11 -44.73% +25.15% -69.89 0 Comment
FoolPep 31.94 8/22/2013 Outperform 3M $11.60 -47.07% +26.40% -73.47 0 Comment
SCOTTRHUETTLCPA 66.86 8/19/2013 Underperform 3W $10.18 -39.69% +26.19% +65.88 0 Comment
rknapton < 20 8/7/2013 Underperform 5Y $10.55 -41.80% +23.20% +65.00 1 Comment
ababrmon 94.90 7/31/2013 Outperform 3M $12.47 -50.76% +23.57% -74.33 0 Comment
efarev 99.06 2/4/2011 7/26/2013 Outperform 5Y $11.16 -44.98% +59.28% -104.27 0 Comment
ronmcpeek < 20 7/19/2013 Outperform 5Y $13.43 -54.28% +23.69% -77.97 0 Comment
TMFEZMagic 35.51 7/15/2013 Underperform 5Y $13.76 -55.38% +24.13% +79.51 0 Comment
batman35 29.59 7/12/2013 Outperform 1Y $13.60 -54.85% +24.44% -79.29 0 Comment
kaletbaldrich27 < 20 7/10/2013 Outperform 1Y $13.30 -53.83% +26.48% -80.31 1 Comment
Jsams82 < 20 7/1/2013 Outperform 1Y $11.58 -46.98% +29.26% -76.23 0 Comment
OriginalBarnacle 83.77 7/1/2013 Underperform 1Y $11.58 -46.98% +29.26% +76.23 0 Comment
JJ68 < 20 6/26/2013 Outperform 5Y $12.10 -49.28% +30.60% -79.88 0 Comment
ytryan 41.31 6/19/2013 Outperform 5Y $11.28 -45.57% +26.58% -72.15 0 Comment
Scraming < 20 6/19/2013 Outperform 3M $11.58 -46.98% +25.92% -72.90 0 Comment
saab93boi < 20 6/18/2013 Underperform 5Y $11.10 -44.68% +25.64% +70.33 0 Comment
shonny2 < 20 5/22/2013 Outperform 5Y $6.90 -11.01% +24.32% -35.33 0 Comment
OttoBismarck 99.91 5/10/2013 Underperform 5Y $6.42 -4.36% +27.89% +32.25 0 Comment
ava5147 < 20 2/19/2013 Outperform 1Y $6.24 -1.60% +36.80% -38.40 0 Comment
mcdbenbe < 20 2/19/2013 Outperform 5Y $6.24 -1.60% +36.80% -38.40 0 Comment
montys3 < 20 1/22/2013 Outperform 5Y $5.99 +2.57% +40.04% -37.47 0 Comment
Spyrig < 20 12/17/2012 Outperform 5Y $4.02 +52.74% +46.30% +6.43 0 Comment
mdrnsamurai < 20 12/12/2012 Outperform 5Y $4.29 +43.12% +44.75% -1.63 0 Comment
danculbertson 58.51 10/15/2012 Outperform 3M $4.41 +39.23% +45.08% -5.85 0 Comment
millerto 46.16 8/31/2012 Outperform 1Y $4.58 +34.14% +47.89% -13.76 0 Comment
IdahoInvestor 29.19 8/8/2012 Underperform 5Y $4.00 +53.47% +48.35% -5.12 0 Comment
iadops40 25.99 7/13/2012 Outperform 1Y $4.02 +52.74% +55.71% -2.98 0 Comment
THERULERGOD < 20 7/11/2012 Outperform 5Y $4.26 +44.13% +55.31% -11.18 0 Comment
greentah 56.32 7/9/2012 Outperform 5Y $4.32 +42.13% +53.97% -11.84 0 Comment
HongHue 27.13 7/6/2012 Outperform 1Y $3.90 +57.44% +53.86% +3.57 0 Comment
Harlequinvestor 38.74 6/18/2012 Outperform 1Y $5.16 +18.99% +56.04% -37.05 0 Comment
ConradMike55 < 20 5/10/2012 Outperform 3W $5.58 +10.04% +52.50% -42.47 0 Comment
Arsenal1860 < 20 5/10/2012 Outperform 5Y $5.58 +10.04% +52.50% -42.47 0 Comment
MythQuinn 83.50 5/8/2012 Outperform 3Y $5.52 +11.23% +52.68% -41.45 0 Comment
stainsolution 33.03 5/8/2012 Outperform 5Y $5.70 +7.72% +52.95% -45.23 0 Comment
foolbull12 < 20 5/8/2012 Outperform 5Y $5.52 +11.23% +53.12% -41.89 0 Comment
RBuskey106 45.63 3/15/2012 Outperform 5Y $7.14 -14.01% +48.28% -62.29 1 Comment
TechSci 28.04 3/6/2012 Outperform 5Y $6.54 -6.12% +54.46% -60.57 0 Comment
mhy729 30.49 2/17/2011 2/13/2012 Outperform 1Y $9.18 -33.10% +55.90% -89.00 0 Comment
drt2202 < 20 12/29/2011 Outperform 5Y $5.94 +3.37% +66.43% -63.07 0 Comment
CaptainVegetable < 20 8/5/2011 Outperform 5Y $7.14 -14.01% +71.43% -85.43 0 Comment
pobeda79 33.57 6/20/2011 Outperform 5Y $6.90 -11.01% +64.62% -75.63 0 Comment
amsteinberg86 < 20 5/31/2011 Outperform 3Y $8.64 -28.94% +54.66% -83.60 0 Comment
codyjr002 98.15 5/27/2011 Outperform 5Y $8.64 -28.94% +56.13% -85.07 0 Comment
Thleter 26.58 5/24/2011 Outperform 1Y $8.10 -24.20% +57.94% -82.14 1 Comment
ag77840 22.57 5/18/2011 Outperform 5Y $8.61 -28.69% +55.34% -84.03 0 Comment
Doggity 63.20 5/17/2011 Outperform 5Y $8.64 -28.94% +57.09% -86.02 0 Comment
Euro247 34.63 5/13/2011 Outperform 5Y $8.79 -30.15% +55.70% -85.85 0 Comment
inouye 51.77 5/3/2011 Outperform 1Y $8.52 -27.93% +53.76% -81.70 0 Comment
NVTreasureHunter 29.12 4/27/2011 Outperform NS $9.00 -31.78% +54.34% -86.12 0 Comment
Squeege1981 44.20 4/18/2011 Outperform 5Y $8.64 -28.94% +59.61% -88.55 0 Comment
reachmygoals1 < 20 4/11/2011 Outperform 3M $8.94 -31.32% +56.72% -88.04 0 Comment
limeonaire 98.43 4/4/2011 Outperform 5Y $9.00 -31.78% +56.22% -87.99 0 Comment
ajhers2 < 20 3/25/2011 Outperform 5Y $8.46 -27.42% +58.10% -85.52 0 Comment
lombardy 29.20 3/22/2011 Outperform 5Y $7.62 -19.42% +60.68% -80.11 0 Comment
binyalazar < 20 3/10/2011 Outperform 5Y $8.99 -31.73% +59.63% -91.36 0 Comment
WorldOnFire 28.57 2/23/2011 Outperform 3W $8.70 -29.43% +58.21% -87.63 0 Comment
HackInvestor < 20 2/22/2011 Outperform 5Y $9.12 -32.68% +56.58% -89.26 0 Comment
cheaply 21.37 2/10/2011 Outperform 1Y $11.16 -44.98% +58.39% -103.37 1 Comment
phineas333 30.79 2/10/2011 Outperform 5Y $11.04 -44.38% +58.39% -102.77 0 Comment
Cjbrat1 29.42 1/10/2011 Outperform 5Y $12.36 -50.32% +64.67% -114.99 0 Comment
atlasbooks 86.22 1/4/2011 Outperform 3M $12.96 -52.62% +63.70% -116.32 0 Comment
FinanceGuy58 63.59 12/20/2010 Outperform 5Y $13.14 -53.27% +67.23% -120.51 0 Comment
Okcfirefighter < 20 12/17/2010 Outperform 5Y $12.72 -51.73% +67.64% -119.37 0 Comment
Results 1 - 99 of 192 : 1 2 Next »

Featured Broker Partners


Advertisement